sensor_id;sensor_type;location;lat;lon;timestamp;P1;durP1;ratioP1;P2;durP2;ratioP2
20896;SDS011;10608;42.600;23.398;2024-01-11T00:01:44;17.03;;;15.63;;
20896;SDS011;10608;42.600;23.398;2024-01-11T00:04:11;18.00;;;16.30;;
20896;SDS011;10608;42.600;23.398;2024-01-11T00:06:41;17.50;;;16.00;;
20896;SDS011;10608;42.600;23.398;2024-01-11T00:09:07;17.67;;;16.10;;
20896;SDS011;10608;42.600;23.398;2024-01-11T00:11:32;18.73;;;16.80;;
20896;SDS011;10608;42.600;23.398;2024-01-11T00:13:58;19.00;;;16.67;;
20896;SDS011;10608;42.600;23.398;2024-01-11T00:16:23;18.47;;;16.77;;
20896;SDS011;10608;42.600;23.398;2024-01-11T00:18:49;18.07;;;16.40;;
20896;SDS011;10608;42.600;23.398;2024-01-11T00:21:14;17.27;;;15.83;;
20896;SDS011;10608;42.600;23.398;2024-01-11T00:23:39;16.50;;;15.10;;
20896;SDS011;10608;42.600;23.398;2024-01-11T00:26:05;17.33;;;15.47;;
20896;SDS011;10608;42.600;23.398;2024-01-11T00:28:30;17.70;;;16.17;;
20896;SDS011;10608;42.600;23.398;2024-01-11T00:30:56;19.10;;;17.40;;
20896;SDS011;10608;42.600;23.398;2024-01-11T00:33:21;19.20;;;17.53;;
20896;SDS011;10608;42.600;23.398;2024-01-11T00:35:46;20.80;;;19.13;;
20896;SDS011;10608;42.600;23.398;2024-01-11T00:38:12;24.50;;;22.80;;
20896;SDS011;10608;42.600;23.398;2024-01-11T00:40:37;24.90;;;23.13;;
20896;SDS011;10608;42.600;23.398;2024-01-11T00:43:02;23.37;;;21.10;;
20896;SDS011;10608;42.600;23.398;2024-01-11T00:45:28;18.90;;;17.50;;
20896;SDS011;10608;42.600;23.398;2024-01-11T00:47:53;23.73;;;21.93;;
20896;SDS011;10608;42.600;23.398;2024-01-11T00:50:19;28.73;;;26.43;;
20896;SDS011;10608;42.600;23.398;2024-01-11T00:52:44;29.30;;;27.17;;
20896;SDS011;10608;42.600;23.398;2024-01-11T00:55:09;28.57;;;26.20;;
20896;SDS011;10608;42.600;23.398;2024-01-11T00:57:35;26.07;;;24.43;;
20896;SDS011;10608;42.600;23.398;2024-01-11T01:00:00;28.70;;;26.73;;
20896;SDS011;10608;42.600;23.398;2024-01-11T01:02:26;27.03;;;25.23;;
20896;SDS011;10608;42.600;23.398;2024-01-11T01:04:51;27.93;;;25.90;;
20896;SDS011;10608;42.600;23.398;2024-01-11T01:07:16;26.67;;;24.77;;
20896;SDS011;10608;42.600;23.398;2024-01-11T01:09:42;21.47;;;19.93;;
20896;SDS011;10608;42.600;23.398;2024-01-11T01:12:07;21.57;;;19.73;;
20896;SDS011;10608;42.600;23.398;2024-01-11T01:14:32;18.83;;;17.17;;
20896;SDS011;10608;42.600;23.398;2024-01-11T01:16:58;16.93;;;15.50;;
20896;SDS011;10608;42.600;23.398;2024-01-11T01:19:23;17.00;;;15.50;;
20896;SDS011;10608;42.600;23.398;2024-01-11T01:21:49;17.73;;;16.23;;
20896;SDS011;10608;42.600;23.398;2024-01-11T01:24:14;15.83;;;14.50;;
20896;SDS011;10608;42.600;23.398;2024-01-11T01:26:40;15.77;;;14.47;;
20896;SDS011;10608;42.600;23.398;2024-01-11T01:29:05;19.53;;;15.20;;
20896;SDS011;10608;42.600;23.398;2024-01-11T01:31:31;16.17;;;14.93;;
20896;SDS011;10608;42.600;23.398;2024-01-11T01:34:02;18.90;;;15.97;;
20896;SDS011;10608;42.600;23.398;2024-01-11T01:36:28;15.90;;;14.60;;
20896;SDS011;10608;42.600;23.398;2024-01-11T01:38:53;18.13;;;16.53;;
20896;SDS011;10608;42.600;23.398;2024-01-11T01:41:19;18.53;;;16.67;;
20896;SDS011;10608;42.600;23.398;2024-01-11T01:43:44;16.03;;;14.57;;
20896;SDS011;10608;42.600;23.398;2024-01-11T01:46:09;17.17;;;15.17;;
20896;SDS011;10608;42.600;23.398;2024-01-11T01:48:35;17.77;;;15.90;;
20896;SDS011;10608;42.600;23.398;2024-01-11T01:51:02;16.20;;;15.00;;
20896;SDS011;10608;42.600;23.398;2024-01-11T01:53:28;20.37;;;17.87;;
20896;SDS011;10608;42.600;23.398;2024-01-11T01:55:54;17.73;;;16.00;;
20896;SDS011;10608;42.600;23.398;2024-01-11T01:58:20;16.70;;;15.37;;
20896;SDS011;10608;42.600;23.398;2024-01-11T02:00:48;17.40;;;16.03;;
20896;SDS011;10608;42.600;23.398;2024-01-11T02:03:15;16.20;;;14.80;;
20896;SDS011;10608;42.600;23.398;2024-01-11T02:05:41;17.43;;;15.87;;
20896;SDS011;10608;42.600;23.398;2024-01-11T02:08:07;17.43;;;16.03;;
20896;SDS011;10608;42.600;23.398;2024-01-11T02:10:37;16.47;;;15.17;;
20896;SDS011;10608;42.600;23.398;2024-01-11T02:13:02;16.70;;;15.20;;
20896;SDS011;10608;42.600;23.398;2024-01-11T02:15:29;18.17;;;16.30;;
20896;SDS011;10608;42.600;23.398;2024-01-11T02:17:54;16.87;;;15.23;;
20896;SDS011;10608;42.600;23.398;2024-01-11T02:20:19;16.53;;;15.07;;
20896;SDS011;10608;42.600;23.398;2024-01-11T02:22:46;17.37;;;15.87;;
20896;SDS011;10608;42.600;23.398;2024-01-11T02:25:15;16.33;;;14.90;;
20896;SDS011;10608;42.600;23.398;2024-01-11T02:27:44;17.07;;;15.50;;
20896;SDS011;10608;42.600;23.398;2024-01-11T02:30:13;16.37;;;15.17;;
20896;SDS011;10608;42.600;23.398;2024-01-11T02:32:39;17.37;;;15.87;;
20896;SDS011;10608;42.600;23.398;2024-01-11T02:35:05;15.87;;;14.47;;
20896;SDS011;10608;42.600;23.398;2024-01-11T02:37:31;17.90;;;16.37;;
20896;SDS011;10608;42.600;23.398;2024-01-11T02:39:57;16.97;;;15.67;;
20896;SDS011;10608;42.600;23.398;2024-01-11T02:42:22;17.20;;;15.83;;
20896;SDS011;10608;42.600;23.398;2024-01-11T02:44:48;16.73;;;15.13;;
20896;SDS011;10608;42.600;23.398;2024-01-11T02:47:13;16.70;;;15.37;;
20896;SDS011;10608;42.600;23.398;2024-01-11T02:49:39;19.57;;;17.47;;
20896;SDS011;10608;42.600;23.398;2024-01-11T02:52:04;17.70;;;16.37;;
20896;SDS011;10608;42.600;23.398;2024-01-11T02:54:30;17.90;;;16.30;;
20896;SDS011;10608;42.600;23.398;2024-01-11T02:56:55;15.80;;;14.77;;
20896;SDS011;10608;42.600;23.398;2024-01-11T02:59:22;17.60;;;16.03;;
20896;SDS011;10608;42.600;23.398;2024-01-11T03:01:49;15.87;;;14.57;;
20896;SDS011;10608;42.600;23.398;2024-01-11T03:04:14;17.00;;;15.33;;
20896;SDS011;10608;42.600;23.398;2024-01-11T03:06:41;19.43;;;17.50;;
20896;SDS011;10608;42.600;23.398;2024-01-11T03:09:07;17.27;;;15.97;;
20896;SDS011;10608;42.600;23.398;2024-01-11T03:11:32;17.83;;;16.47;;
20896;SDS011;10608;42.600;23.398;2024-01-11T03:13:58;19.67;;;18.07;;
20896;SDS011;10608;42.600;23.398;2024-01-11T03:16:23;19.77;;;17.90;;
20896;SDS011;10608;42.600;23.398;2024-01-11T03:18:48;18.00;;;16.57;;
20896;SDS011;10608;42.600;23.398;2024-01-11T03:21:14;19.33;;;17.63;;
20896;SDS011;10608;42.600;23.398;2024-01-11T03:23:39;19.27;;;18.00;;
20896;SDS011;10608;42.600;23.398;2024-01-11T03:26:11;19.90;;;18.20;;
20896;SDS011;10608;42.600;23.398;2024-01-11T03:28:41;15.67;;;14.67;;
20896;SDS011;10608;42.600;23.398;2024-01-11T03:31:07;17.83;;;16.30;;
20896;SDS011;10608;42.600;23.398;2024-01-11T03:33:35;15.97;;;14.47;;
20896;SDS011;10608;42.600;23.398;2024-01-11T03:36:07;16.20;;;14.60;;
20896;SDS011;10608;42.600;23.398;2024-01-11T03:38:34;20.27;;;16.83;;
20896;SDS011;10608;42.600;23.398;2024-01-11T03:40:59;17.23;;;15.83;;
20896;SDS011;10608;42.600;23.398;2024-01-11T03:43:25;18.40;;;16.87;;
20896;SDS011;10608;42.600;23.398;2024-01-11T03:45:50;16.37;;;15.17;;
20896;SDS011;10608;42.600;23.398;2024-01-11T03:48:15;16.13;;;14.93;;
20896;SDS011;10608;42.600;23.398;2024-01-11T03:50:41;16.00;;;14.70;;
20896;SDS011;10608;42.600;23.398;2024-01-11T03:53:06;14.50;;;13.60;;
20896;SDS011;10608;42.600;23.398;2024-01-11T03:55:33;15.13;;;13.87;;
20896;SDS011;10608;42.600;23.398;2024-01-11T03:57:58;16.67;;;15.17;;
20896;SDS011;10608;42.600;23.398;2024-01-11T04:00:24;14.47;;;13.30;;
20896;SDS011;10608;42.600;23.398;2024-01-11T04:02:49;13.50;;;12.70;;
20896;SDS011;10608;42.600;23.398;2024-01-11T04:05:14;13.73;;;12.97;;
20896;SDS011;10608;42.600;23.398;2024-01-11T04:07:41;15.17;;;14.07;;
20896;SDS011;10608;42.600;23.398;2024-01-11T04:10:06;16.10;;;14.63;;
20896;SDS011;10608;42.600;23.398;2024-01-11T04:12:34;12.97;;;12.17;;
20896;SDS011;10608;42.600;23.398;2024-01-11T04:15:00;15.33;;;13.90;;
20896;SDS011;10608;42.600;23.398;2024-01-11T04:17:26;15.67;;;14.47;;
20896;SDS011;10608;42.600;23.398;2024-01-11T04:19:51;14.83;;;13.73;;
20896;SDS011;10608;42.600;23.398;2024-01-11T04:22:16;14.90;;;13.90;;
20896;SDS011;10608;42.600;23.398;2024-01-11T04:24:42;14.63;;;13.73;;
20896;SDS011;10608;42.600;23.398;2024-01-11T04:27:08;13.53;;;12.53;;
20896;SDS011;10608;42.600;23.398;2024-01-11T04:29:33;15.40;;;14.23;;
20896;SDS011;10608;42.600;23.398;2024-01-11T04:31:58;14.20;;;13.30;;
20896;SDS011;10608;42.600;23.398;2024-01-11T04:34:24;16.93;;;15.70;;
20896;SDS011;10608;42.600;23.398;2024-01-11T04:36:49;14.87;;;13.87;;
20896;SDS011;10608;42.600;23.398;2024-01-11T04:39:15;15.10;;;14.07;;
20896;SDS011;10608;42.600;23.398;2024-01-11T04:41:41;16.67;;;15.30;;
20896;SDS011;10608;42.600;23.398;2024-01-11T04:44:06;15.27;;;13.97;;
20896;SDS011;10608;42.600;23.398;2024-01-11T04:46:32;15.17;;;14.03;;
20896;SDS011;10608;42.600;23.398;2024-01-11T04:48:57;15.30;;;14.10;;
20896;SDS011;10608;42.600;23.398;2024-01-11T04:51:23;16.40;;;14.97;;
20896;SDS011;10608;42.600;23.398;2024-01-11T04:53:48;17.90;;;16.67;;
20896;SDS011;10608;42.600;23.398;2024-01-11T04:56:17;15.23;;;13.93;;
20896;SDS011;10608;42.600;23.398;2024-01-11T04:58:42;16.03;;;14.67;;
20896;SDS011;10608;42.600;23.398;2024-01-11T05:01:16;16.37;;;14.93;;
20896;SDS011;10608;42.600;23.398;2024-01-11T05:03:42;16.87;;;15.47;;
20896;SDS011;10608;42.600;23.398;2024-01-11T05:06:14;20.13;;;18.33;;
20896;SDS011;10608;42.600;23.398;2024-01-11T05:08:40;18.77;;;17.20;;
20896;SDS011;10608;42.600;23.398;2024-01-11T05:11:06;16.80;;;15.30;;
20896;SDS011;10608;42.600;23.398;2024-01-11T05:13:31;15.70;;;14.33;;
20896;SDS011;10608;42.600;23.398;2024-01-11T05:15:56;17.27;;;15.87;;
20896;SDS011;10608;42.600;23.398;2024-01-11T05:18:22;16.80;;;15.43;;
20896;SDS011;10608;42.600;23.398;2024-01-11T05:20:48;19.37;;;17.73;;
20896;SDS011;10608;42.600;23.398;2024-01-11T05:23:13;18.17;;;16.73;;
20896;SDS011;10608;42.600;23.398;2024-01-11T05:25:38;18.30;;;16.63;;
20896;SDS011;10608;42.600;23.398;2024-01-11T05:28:04;18.87;;;17.00;;
20896;SDS011;10608;42.600;23.398;2024-01-11T05:30:30;19.17;;;17.23;;
20896;SDS011;10608;42.600;23.398;2024-01-11T05:32:55;20.00;;;17.80;;
20896;SDS011;10608;42.600;23.398;2024-01-11T05:35:21;18.53;;;16.80;;
20896;SDS011;10608;42.600;23.398;2024-01-11T05:37:49;18.17;;;16.70;;
20896;SDS011;10608;42.600;23.398;2024-01-11T05:40:15;16.77;;;15.43;;
20896;SDS011;10608;42.600;23.398;2024-01-11T05:42:40;20.80;;;18.87;;
20896;SDS011;10608;42.600;23.398;2024-01-11T05:45:06;18.73;;;17.07;;
20896;SDS011;10608;42.600;23.398;2024-01-11T05:47:31;18.97;;;17.27;;
20896;SDS011;10608;42.600;23.398;2024-01-11T05:49:57;19.90;;;18.20;;
20896;SDS011;10608;42.600;23.398;2024-01-11T05:52:22;20.07;;;18.07;;
20896;SDS011;10608;42.600;23.398;2024-01-11T05:54:48;18.30;;;16.90;;
20896;SDS011;10608;42.600;23.398;2024-01-11T05:57:13;20.30;;;18.47;;
20896;SDS011;10608;42.600;23.398;2024-01-11T05:59:44;20.57;;;17.77;;
20896;SDS011;10608;42.600;23.398;2024-01-11T06:02:11;20.57;;;18.63;;
20896;SDS011;10608;42.600;23.398;2024-01-11T06:04:37;21.00;;;19.07;;
20896;SDS011;10608;42.600;23.398;2024-01-11T06:07:02;21.60;;;19.63;;
20896;SDS011;10608;42.600;23.398;2024-01-11T06:09:28;22.00;;;19.90;;
20896;SDS011;10608;42.600;23.398;2024-01-11T06:11:53;24.87;;;22.27;;
20896;SDS011;10608;42.600;23.398;2024-01-11T06:14:18;25.40;;;23.07;;
20896;SDS011;10608;42.600;23.398;2024-01-11T06:16:44;25.63;;;23.00;;
20896;SDS011;10608;42.600;23.398;2024-01-11T06:19:09;27.83;;;24.80;;
20896;SDS011;10608;42.600;23.398;2024-01-11T06:21:35;27.77;;;24.57;;
20896;SDS011;10608;42.600;23.398;2024-01-11T06:24:00;21.13;;;19.17;;
20896;SDS011;10608;42.600;23.398;2024-01-11T06:26:26;20.70;;;18.80;;
20896;SDS011;10608;42.600;23.398;2024-01-11T06:28:51;20.40;;;18.50;;
20896;SDS011;10608;42.600;23.398;2024-01-11T06:31:16;21.67;;;18.80;;
20896;SDS011;10608;42.600;23.398;2024-01-11T06:33:43;21.73;;;19.57;;
20896;SDS011;10608;42.600;23.398;2024-01-11T06:36:08;21.27;;;19.03;;
20896;SDS011;10608;42.600;23.398;2024-01-11T06:38:34;19.00;;;17.23;;
20896;SDS011;10608;42.600;23.398;2024-01-11T06:40:59;19.77;;;17.70;;
20896;SDS011;10608;42.600;23.398;2024-01-11T06:43:25;19.37;;;17.57;;
20896;SDS011;10608;42.600;23.398;2024-01-11T06:45:50;21.73;;;18.90;;
20896;SDS011;10608;42.600;23.398;2024-01-11T06:48:15;20.13;;;18.37;;
20896;SDS011;10608;42.600;23.398;2024-01-11T06:50:41;21.23;;;19.23;;
20896;SDS011;10608;42.600;23.398;2024-01-11T06:53:07;19.67;;;17.73;;
20896;SDS011;10608;42.600;23.398;2024-01-11T06:55:32;22.50;;;20.10;;
20896;SDS011;10608;42.600;23.398;2024-01-11T06:57:57;22.10;;;19.90;;
20896;SDS011;10608;42.600;23.398;2024-01-11T07:00:24;23.77;;;21.40;;
20896;SDS011;10608;42.600;23.398;2024-01-11T07:02:49;24.17;;;21.67;;
20896;SDS011;10608;42.600;23.398;2024-01-11T07:05:15;26.53;;;21.13;;
20896;SDS011;10608;42.600;23.398;2024-01-11T07:07:40;30.13;;;22.63;;
20896;SDS011;10608;42.600;23.398;2024-01-11T07:10:06;31.07;;;22.67;;
20896;SDS011;10608;42.600;23.398;2024-01-11T07:12:31;24.27;;;20.93;;
20896;SDS011;10608;42.600;23.398;2024-01-11T07:14:57;24.40;;;20.37;;
20896;SDS011;10608;42.600;23.398;2024-01-11T07:17:23;20.63;;;17.87;;
20896;SDS011;10608;42.600;23.398;2024-01-11T07:19:49;20.27;;;18.07;;
20896;SDS011;10608;42.600;23.398;2024-01-11T07:22:14;27.33;;;19.33;;
20896;SDS011;10608;42.600;23.398;2024-01-11T07:24:40;21.77;;;18.63;;
20896;SDS011;10608;42.600;23.398;2024-01-11T07:27:06;19.67;;;16.03;;
20896;SDS011;10608;42.600;23.398;2024-01-11T07:29:32;16.33;;;14.77;;
20896;SDS011;10608;42.600;23.398;2024-01-11T07:31:58;13.47;;;12.30;;
20896;SDS011;10608;42.600;23.398;2024-01-11T07:34:24;16.07;;;14.67;;
20896;SDS011;10608;42.600;23.398;2024-01-11T07:36:49;18.53;;;16.53;;
20896;SDS011;10608;42.600;23.398;2024-01-11T07:39:15;26.77;;;20.90;;
20896;SDS011;10608;42.600;23.398;2024-01-11T07:41:41;18.50;;;16.80;;
20896;SDS011;10608;42.600;23.398;2024-01-11T07:44:07;19.30;;;17.40;;
20896;SDS011;10608;42.600;23.398;2024-01-11T07:46:32;18.93;;;17.03;;
20896;SDS011;10608;42.600;23.398;2024-01-11T07:48:58;32.50;;;27.50;;
20896;SDS011;10608;42.600;23.398;2024-01-11T07:51:24;28.97;;;24.53;;
20896;SDS011;10608;42.600;23.398;2024-01-11T07:53:50;26.40;;;22.03;;
20896;SDS011;10608;42.600;23.398;2024-01-11T07:56:15;28.60;;;23.00;;
20896;SDS011;10608;42.600;23.398;2024-01-11T07:58:42;29.77;;;24.50;;
20896;SDS011;10608;42.600;23.398;2024-01-11T08:01:07;29.90;;;25.20;;
20896;SDS011;10608;42.600;23.398;2024-01-11T08:03:33;26.30;;;23.30;;
20896;SDS011;10608;42.600;23.398;2024-01-11T08:06:00;25.77;;;22.93;;
20896;SDS011;10608;42.600;23.398;2024-01-11T08:08:25;29.20;;;23.30;;
20896;SDS011;10608;42.600;23.398;2024-01-11T08:10:51;25.70;;;22.97;;
20896;SDS011;10608;42.600;23.398;2024-01-11T08:13:17;29.07;;;24.33;;
20896;SDS011;10608;42.600;23.398;2024-01-11T08:15:43;34.17;;;25.77;;
20896;SDS011;10608;42.600;23.398;2024-01-11T08:18:08;34.57;;;28.97;;
20896;SDS011;10608;42.600;23.398;2024-01-11T08:20:34;39.23;;;31.67;;
20896;SDS011;10608;42.600;23.398;2024-01-11T08:23:00;31.77;;;28.27;;
20896;SDS011;10608;42.600;23.398;2024-01-11T08:25:25;37.23;;;28.10;;
20896;SDS011;10608;42.600;23.398;2024-01-11T08:27:51;43.97;;;32.03;;
20896;SDS011;10608;42.600;23.398;2024-01-11T08:30:16;40.50;;;31.07;;
20896;SDS011;10608;42.600;23.398;2024-01-11T08:32:42;42.80;;;33.33;;
20896;SDS011;10608;42.600;23.398;2024-01-11T08:35:10;40.93;;;33.30;;
20896;SDS011;10608;42.600;23.398;2024-01-11T08:37:36;42.83;;;29.57;;
20896;SDS011;10608;42.600;23.398;2024-01-11T08:40:02;39.40;;;31.17;;
20896;SDS011;10608;42.600;23.398;2024-01-11T08:42:30;39.03;;;29.07;;
20896;SDS011;10608;42.600;23.398;2024-01-11T08:44:56;36.37;;;28.77;;
20896;SDS011;10608;42.600;23.398;2024-01-11T08:47:21;47.37;;;33.87;;
20896;SDS011;10608;42.600;23.398;2024-01-11T08:49:46;34.63;;;26.83;;
20896;SDS011;10608;42.600;23.398;2024-01-11T08:52:12;36.20;;;28.57;;
20896;SDS011;10608;42.600;23.398;2024-01-11T08:54:37;28.73;;;24.73;;
20896;SDS011;10608;42.600;23.398;2024-01-11T08:57:03;37.03;;;27.80;;
20896;SDS011;10608;42.600;23.398;2024-01-11T08:59:29;32.90;;;26.87;;
20896;SDS011;10608;42.600;23.398;2024-01-11T09:01:54;31.33;;;26.17;;
20896;SDS011;10608;42.600;23.398;2024-01-11T09:04:19;27.80;;;24.93;;
20896;SDS011;10608;42.600;23.398;2024-01-11T09:06:45;33.07;;;26.50;;
20896;SDS011;10608;42.600;23.398;2024-01-11T09:09:11;32.43;;;24.30;;
20896;SDS011;10608;42.600;23.398;2024-01-11T09:11:38;33.17;;;26.13;;
20896;SDS011;10608;42.600;23.398;2024-01-11T09:14:07;29.90;;;24.97;;
20896;SDS011;10608;42.600;23.398;2024-01-11T09:16:32;34.03;;;27.23;;
20896;SDS011;10608;42.600;23.398;2024-01-11T09:18:58;35.73;;;27.60;;
20896;SDS011;10608;42.600;23.398;2024-01-11T09:21:25;34.80;;;27.87;;
20896;SDS011;10608;42.600;23.398;2024-01-11T09:23:51;29.77;;;25.47;;
20896;SDS011;10608;42.600;23.398;2024-01-11T09:26:16;34.20;;;26.67;;
20896;SDS011;10608;42.600;23.398;2024-01-11T09:28:42;29.37;;;25.40;;
20896;SDS011;10608;42.600;23.398;2024-01-11T09:31:07;38.27;;;26.40;;
20896;SDS011;10608;42.600;23.398;2024-01-11T09:33:33;38.03;;;27.60;;
20896;SDS011;10608;42.600;23.398;2024-01-11T09:35:58;37.57;;;29.37;;
20896;SDS011;10608;42.600;23.398;2024-01-11T09:38:24;42.37;;;30.33;;
20896;SDS011;10608;42.600;23.398;2024-01-11T09:40:52;36.07;;;26.83;;
20896;SDS011;10608;42.600;23.398;2024-01-11T09:43:32;36.23;;;26.53;;
20896;SDS011;10608;42.600;23.398;2024-01-11T09:45:58;39.47;;;27.83;;
20896;SDS011;10608;42.600;23.398;2024-01-11T09:48:29;37.47;;;30.20;;
20896;SDS011;10608;42.600;23.398;2024-01-11T09:50:57;40.03;;;30.43;;
20896;SDS011;10608;42.600;23.398;2024-01-11T09:53:24;35.50;;;27.17;;
20896;SDS011;10608;42.600;23.398;2024-01-11T09:55:51;40.73;;;28.10;;
20896;SDS011;10608;42.600;23.398;2024-01-11T09:58:18;36.23;;;28.50;;
20896;SDS011;10608;42.600;23.398;2024-01-11T10:00:46;36.00;;;28.90;;
20896;SDS011;10608;42.600;23.398;2024-01-11T10:03:13;36.17;;;29.03;;
20896;SDS011;10608;42.600;23.398;2024-01-11T10:05:39;37.83;;;27.17;;
20896;SDS011;10608;42.600;23.398;2024-01-11T10:08:06;32.07;;;28.43;;
20896;SDS011;10608;42.600;23.398;2024-01-11T10:10:32;35.63;;;29.70;;
20896;SDS011;10608;42.600;23.398;2024-01-11T10:12:57;33.90;;;28.63;;
20896;SDS011;10608;42.600;23.398;2024-01-11T10:15:23;44.13;;;31.27;;
20896;SDS011;10608;42.600;23.398;2024-01-11T10:17:49;43.50;;;31.57;;
20896;SDS011;10608;42.600;23.398;2024-01-11T10:20:15;36.20;;;29.40;;
20896;SDS011;10608;42.600;23.398;2024-01-11T10:22:41;39.70;;;27.73;;
20896;SDS011;10608;42.600;23.398;2024-01-11T10:25:08;33.97;;;27.83;;
20896;SDS011;10608;42.600;23.398;2024-01-11T10:27:41;40.90;;;29.00;;
20896;SDS011;10608;42.600;23.398;2024-01-11T10:30:08;39.37;;;31.17;;
20896;SDS011;10608;42.600;23.398;2024-01-11T10:32:44;47.00;;;30.83;;
20896;SDS011;10608;42.600;23.398;2024-01-11T10:35:10;40.93;;;30.97;;
20896;SDS011;10608;42.600;23.398;2024-01-11T10:37:36;40.50;;;33.07;;
20896;SDS011;10608;42.600;23.398;2024-01-11T10:40:04;47.97;;;34.23;;
20896;SDS011;10608;42.600;23.398;2024-01-11T10:42:49;38.70;;;28.67;;
20896;SDS011;10608;42.600;23.398;2024-01-11T10:45:17;33.00;;;26.10;;
20896;SDS011;10608;42.600;23.398;2024-01-11T10:50:16;49.53;;;30.57;;
20896;SDS011;10608;42.600;23.398;2024-01-11T10:52:47;40.13;;;29.20;;
20896;SDS011;10608;42.600;23.398;2024-01-11T10:55:34;34.73;;;27.10;;
20896;SDS011;10608;42.600;23.398;2024-01-11T10:58:01;42.60;;;29.10;;
20896;SDS011;10608;42.600;23.398;2024-01-11T11:00:28;40.87;;;30.33;;
20896;SDS011;10608;42.600;23.398;2024-01-11T11:02:54;39.97;;;30.50;;
20896;SDS011;10608;42.600;23.398;2024-01-11T11:05:21;45.30;;;31.33;;
20896;SDS011;10608;42.600;23.398;2024-01-11T11:07:48;45.03;;;27.90;;
20896;SDS011;10608;42.600;23.398;2024-01-11T11:10:15;40.37;;;29.60;;
20896;SDS011;10608;42.600;23.398;2024-01-11T11:12:43;33.93;;;27.03;;
20896;SDS011;10608;42.600;23.398;2024-01-11T11:15:10;44.67;;;32.37;;
20896;SDS011;10608;42.600;23.398;2024-01-11T11:17:37;45.67;;;27.87;;
20896;SDS011;10608;42.600;23.398;2024-01-11T11:20:04;42.00;;;29.37;;
20896;SDS011;10608;42.600;23.398;2024-01-11T11:22:35;43.33;;;30.97;;
20896;SDS011;10608;42.600;23.398;2024-01-11T11:25:04;43.60;;;30.03;;
20896;SDS011;10608;42.600;23.398;2024-01-11T11:27:38;38.73;;;29.20;;
20896;SDS011;10608;42.600;23.398;2024-01-11T11:30:04;35.93;;;27.93;;
20896;SDS011;10608;42.600;23.398;2024-01-11T11:32:43;35.47;;;27.30;;
20896;SDS011;10608;42.600;23.398;2024-01-11T11:35:10;36.43;;;26.90;;
20896;SDS011;10608;42.600;23.398;2024-01-11T11:37:38;43.63;;;29.37;;
20896;SDS011;10608;42.600;23.398;2024-01-11T11:40:05;39.47;;;27.03;;
20896;SDS011;10608;42.600;23.398;2024-01-11T11:42:31;36.67;;;25.10;;
20896;SDS011;10608;42.600;23.398;2024-01-11T11:44:59;32.70;;;25.50;;
20896;SDS011;10608;42.600;23.398;2024-01-11T11:47:24;32.37;;;26.37;;
20896;SDS011;10608;42.600;23.398;2024-01-11T11:52:32;28.87;;;25.07;;
20896;SDS011;10608;42.600;23.398;2024-01-11T11:54:59;32.93;;;26.87;;
20896;SDS011;10608;42.600;23.398;2024-01-11T11:57:26;36.83;;;29.43;;
20896;SDS011;10608;42.600;23.398;2024-01-11T11:59:54;35.00;;;27.60;;
20896;SDS011;10608;42.600;23.398;2024-01-11T12:02:22;30.37;;;26.87;;
20896;SDS011;10608;42.600;23.398;2024-01-11T12:04:49;40.27;;;28.00;;
20896;SDS011;10608;42.600;23.398;2024-01-11T12:07:15;40.17;;;28.80;;
20896;SDS011;10608;42.600;23.398;2024-01-11T12:09:41;37.47;;;29.07;;
20896;SDS011;10608;42.600;23.398;2024-01-11T12:12:07;39.67;;;28.93;;
20896;SDS011;10608;42.600;23.398;2024-01-11T12:14:33;45.07;;;28.83;;
20896;SDS011;10608;42.600;23.398;2024-01-11T12:16:59;39.90;;;31.93;;
20896;SDS011;10608;42.600;23.398;2024-01-11T12:19:25;36.80;;;28.40;;
20896;SDS011;10608;42.600;23.398;2024-01-11T12:21:50;40.93;;;30.10;;
20896;SDS011;10608;42.600;23.398;2024-01-11T12:24:16;49.87;;;30.60;;
20896;SDS011;10608;42.600;23.398;2024-01-11T12:26:42;43.37;;;31.10;;
20896;SDS011;10608;42.600;23.398;2024-01-11T12:29:08;36.93;;;29.77;;
20896;SDS011;10608;42.600;23.398;2024-01-11T12:31:34;45.40;;;30.10;;
20896;SDS011;10608;42.600;23.398;2024-01-11T12:34:00;41.33;;;31.73;;
20896;SDS011;10608;42.600;23.398;2024-01-11T12:36:27;47.50;;;32.20;;
20896;SDS011;10608;42.600;23.398;2024-01-11T12:38:53;37.53;;;30.33;;
20896;SDS011;10608;42.600;23.398;2024-01-11T12:41:19;36.97;;;30.67;;
20896;SDS011;10608;42.600;23.398;2024-01-11T12:43:48;42.17;;;32.57;;
20896;SDS011;10608;42.600;23.398;2024-01-11T12:46:13;47.13;;;32.07;;
20896;SDS011;10608;42.600;23.398;2024-01-11T12:48:39;41.87;;;32.90;;
20896;SDS011;10608;42.600;23.398;2024-01-11T12:51:05;36.80;;;30.80;;
20896;SDS011;10608;42.600;23.398;2024-01-11T12:53:30;44.00;;;31.37;;
20896;SDS011;10608;42.600;23.398;2024-01-11T12:56:03;41.57;;;31.27;;
20896;SDS011;10608;42.600;23.398;2024-01-11T12:58:35;39.63;;;29.97;;
20896;SDS011;10608;42.600;23.398;2024-01-11T13:01:04;43.37;;;33.37;;
20896;SDS011;10608;42.600;23.398;2024-01-11T13:03:32;44.33;;;31.13;;
20896;SDS011;10608;42.600;23.398;2024-01-11T13:05:58;44.13;;;31.90;;
20896;SDS011;10608;42.600;23.398;2024-01-11T13:08:24;41.23;;;31.57;;
20896;SDS011;10608;42.600;23.398;2024-01-11T13:10:50;45.20;;;31.33;;
20896;SDS011;10608;42.600;23.398;2024-01-11T13:13:15;44.90;;;33.67;;
20896;SDS011;10608;42.600;23.398;2024-01-11T13:15:41;42.70;;;29.90;;
20896;SDS011;10608;42.600;23.398;2024-01-11T13:18:06;41.37;;;30.93;;
20896;SDS011;10608;42.600;23.398;2024-01-11T13:20:31;45.13;;;34.20;;
20896;SDS011;10608;42.600;23.398;2024-01-11T13:25:41;46.10;;;32.60;;
20896;SDS011;10608;42.600;23.398;2024-01-11T13:28:07;46.33;;;33.17;;
20896;SDS011;10608;42.600;23.398;2024-01-11T13:30:33;50.57;;;31.63;;
20896;SDS011;10608;42.600;23.398;2024-01-11T13:32:59;39.60;;;30.37;;
20896;SDS011;10608;42.600;23.398;2024-01-11T13:35:24;33.83;;;28.33;;
20896;SDS011;10608;42.600;23.398;2024-01-11T13:37:50;40.03;;;29.10;;
20896;SDS011;10608;42.600;23.398;2024-01-11T13:40:15;37.57;;;29.97;;
20896;SDS011;10608;42.600;23.398;2024-01-11T13:42:41;45.93;;;30.60;;
20896;SDS011;10608;42.600;23.398;2024-01-11T13:45:06;40.57;;;29.17;;
20896;SDS011;10608;42.600;23.398;2024-01-11T13:47:34;41.60;;;29.57;;
20896;SDS011;10608;42.600;23.398;2024-01-11T13:50:02;39.77;;;29.83;;
20896;SDS011;10608;42.600;23.398;2024-01-11T13:52:28;37.40;;;30.53;;
20896;SDS011;10608;42.600;23.398;2024-01-11T13:54:54;42.27;;;29.67;;
20896;SDS011;10608;42.600;23.398;2024-01-11T13:57:19;37.60;;;30.10;;
20896;SDS011;10608;42.600;23.398;2024-01-11T13:59:45;44.67;;;30.80;;
20896;SDS011;10608;42.600;23.398;2024-01-11T14:02:11;47.47;;;30.17;;
20896;SDS011;10608;42.600;23.398;2024-01-11T14:04:37;50.47;;;34.07;;
20896;SDS011;10608;42.600;23.398;2024-01-11T14:07:02;34.83;;;28.97;;
20896;SDS011;10608;42.600;23.398;2024-01-11T14:09:28;35.37;;;26.73;;
20896;SDS011;10608;42.600;23.398;2024-01-11T14:11:54;33.37;;;26.60;;